sensor_id;sensor_type;location;lat;lon;timestamp;pressure;altitude;pressure_sealevel;temperature;humidity
50652;BME280;66928;52.086;5.240;2023-02-17T06:24:59;101580.0;;;10.97;96.72
50652;BME280;66928;52.086;5.240;2023-02-17T06:28:11;101574.0;;;10.96;96.48
50652;BME280;66928;52.086;5.240;2023-02-17T06:29:47;101577.0;;;11.02;96.7
50652;BME280;66928;52.086;5.240;2023-02-17T06:31:24;101586.0;;;10.97;97.32
50652;BME280;66928;52.086;5.240;2023-02-17T06:33:01;101580.0;;;10.75;98.42
50652;BME280;66928;52.086;5.240;2023-02-17T06:36:13;101587.0;;;10.86;97.91
50652;BME280;66928;52.086;5.240;2023-02-17T06:37:49;101569.0;;;10.94;97.78
50652;BME280;66928;52.086;5.240;2023-02-17T06:39:26;101565.0;;;10.88;97.76
50652;BME280;66928;52.086;5.240;2023-02-17T06:42:38;101559.0;;;10.93;97.6
50652;BME280;66928;52.086;5.240;2023-02-17T06:44:14;101555.0;;;10.89;97.75
50652;BME280;66928;52.086;5.240;2023-02-17T06:45:52;101545.0;;;10.93;97.68
50652;BME280;66928;52.086;5.240;2023-02-17T06:49:04;101556.0;;;10.87;98.05
50652;BME280;66928;52.086;5.240;2023-02-17T06:50:41;101545.0;;;10.9;97.58
50652;BME280;66928;52.086;5.240;2023-02-17T06:52:17;101548.0;;;10.94;97.6
50652;BME280;66928;52.086;5.240;2023-02-17T06:53:54;101545.0;;;11.09;97.09
50652;BME280;66928;52.086;5.240;2023-02-17T06:57:07;101540.0;;;10.93;96.75
50652;BME280;66928;52.086;5.240;2023-02-17T06:58:43;101549.0;;;11.07;96.76
50652;BME280;66928;52.086;5.240;2023-02-17T07:00:20;101536.0;;;10.94;97.43
50652;BME280;66928;52.086;5.240;2023-02-17T07:03:33;101546.0;;;11.06;97.02
50652;BME280;66928;52.086;5.240;2023-02-17T07:05:09;101544.0;;;11.04;96.62
50652;BME280;66928;52.086;5.240;2023-02-17T07:06:45;101538.0;;;11.21;95.98
50652;BME280;66928;52.086;5.240;2023-02-17T07:09:58;101533.0;;;11.12;96.15
50652;BME280;66928;52.086;5.240;2023-02-17T07:11:34;101530.0;;;11.11;96.13
50652;BME280;66928;52.086;5.240;2023-02-17T07:13:10;101542.0;;;11.1;96.02
50652;BME280;66928;52.086;5.240;2023-02-17T07:14:46;101548.0;;;11.08;96.46
50652;BME280;66928;52.086;5.240;2023-02-17T07:17:59;101536.0;;;11.14;96.1
50652;BME280;66928;52.086;5.240;2023-02-17T07:19:37;101558.0;;;11.11;95.9
50652;BME280;66928;52.086;5.240;2023-02-17T07:21:13;101570.0;;;11.01;96.31
50652;BME280;66928;52.086;5.240;2023-02-17T07:24:26;101581.0;;;11.17;96.3
50652;BME280;66928;52.086;5.240;2023-02-17T07:26:04;101583.0;;;11.24;95.56
50652;BME280;66928;52.086;5.240;2023-02-17T07:30:53;101574.0;;;11.36;94.64
50652;BME280;66928;52.086;5.240;2023-02-17T07:32:29;101573.0;;;11.15;95.45
50652;BME280;66928;52.086;5.240;2023-02-17T07:34:05;101575.0;;;11.24;95.34
50652;BME280;66928;52.086;5.240;2023-02-17T07:35:43;101575.0;;;11.28;94.86
50652;BME280;66928;52.086;5.240;2023-02-17T07:38:56;101551.0;;;11.3;94.77
50652;BME280;66928;52.086;5.240;2023-02-17T07:40:32;101555.0;;;11.38;94.39
50652;BME280;66928;52.086;5.240;2023-02-17T07:42:09;101538.0;;;11.36;93.96
50652;BME280;66928;52.086;5.240;2023-02-17T07:45:23;101541.0;;;11.41;93.9
50652;BME280;66928;52.086;5.240;2023-02-17T07:46:59;101547.0;;;11.4;93.59
50652;BME280;66928;52.086;5.240;2023-02-17T07:48:35;101546.0;;;11.33;94.2
50652;BME280;66928;52.086;5.240;2023-02-17T08:03:48;101556.0;;;11.49;92.67
50652;BME280;66928;52.086;5.240;2023-02-17T08:05:25;101560.0;;;11.57;92.74
50652;BME280;66928;52.086;5.240;2023-02-17T08:07:01;101558.0;;;11.55;92.54
50652;BME280;66928;52.086;5.240;2023-02-17T08:13:34;101566.0;;;11.76;91.67
50652;BME280;66928;52.086;5.240;2023-02-17T08:15:11;101575.0;;;11.82;91.13
50652;BME280;66928;52.086;5.240;2023-02-17T08:16:48;101597.0;;;11.88;90.58
50652;BME280;66928;52.086;5.240;2023-02-17T08:18:25;101597.0;;;11.79;91.0
50652;BME280;66928;52.086;5.240;2023-02-17T08:20:01;101594.0;;;11.7;90.63
50652;BME280;66928;52.086;5.240;2023-02-17T08:23:14;101590.0;;;11.55;91.22
50652;BME280;66928;52.086;5.240;2023-02-17T08:24:51;101595.0;;;11.62;90.87
50652;BME280;66928;52.086;5.240;2023-02-17T08:26:27;101594.0;;;11.73;90.44
50652;BME280;66928;52.086;5.240;2023-02-17T08:28:03;101601.0;;;11.62;90.81
50652;BME280;66928;52.086;5.240;2023-02-17T08:31:20;101605.0;;;11.66;91.05
50652;BME280;66928;52.086;5.240;2023-02-17T08:32:56;101592.0;;;11.71;90.75
50652;BME280;66928;52.086;5.240;2023-02-17T08:34:32;101602.0;;;11.73;90.57
50652;BME280;66928;52.086;5.240;2023-02-17T08:37:47;101591.0;;;11.67;90.58
50652;BME280;66928;52.086;5.240;2023-02-17T08:39:25;101584.0;;;11.73;90.58
50652;BME280;66928;52.086;5.240;2023-02-17T08:41:11;101594.0;;;11.91;89.64
50652;BME280;66928;52.086;5.240;2023-02-17T08:42:47;101606.0;;;11.7;90.34
50652;BME280;66928;52.086;5.240;2023-02-17T08:46:00;101600.0;;;11.6;90.53
50652;BME280;66928;52.086;5.240;2023-02-17T08:47:37;101609.0;;;11.67;90.46
50652;BME280;66928;52.086;5.240;2023-02-17T08:49:14;101615.0;;;11.56;90.99
50652;BME280;66928;52.086;5.240;2023-02-17T08:52:27;101603.0;;;11.6;91.1
50652;BME280;66928;52.086;5.240;2023-02-17T08:54:04;101613.0;;;11.62;90.69
50652;BME280;66928;52.086;5.240;2023-02-17T08:55:42;101626.0;;;11.55;91.04
50652;BME280;66928;52.086;5.240;2023-02-17T08:57:20;101622.0;;;11.53;90.96
50652;BME280;66928;52.086;5.240;2023-02-17T09:00:33;101611.0;;;11.59;90.78
50652;BME280;66928;52.086;5.240;2023-02-17T09:03:47;101614.0;;;11.87;89.49
50652;BME280;66928;52.086;5.240;2023-02-17T09:07:01;101610.0;;;11.75;90.23
50652;BME280;66928;52.086;5.240;2023-02-17T09:08:40;101610.0;;;11.68;90.15
50652;BME280;66928;52.086;5.240;2023-02-17T09:10:16;101612.0;;;11.71;90.4
50652;BME280;66928;52.086;5.240;2023-02-17T09:11:55;101615.0;;;11.82;90.09
50652;BME280;66928;52.086;5.240;2023-02-17T09:15:09;101624.0;;;11.78;89.76
50652;BME280;66928;52.086;5.240;2023-02-17T09:16:45;101620.0;;;11.58;90.48
50652;BME280;66928;52.086;5.240;2023-02-17T09:18:21;101619.0;;;11.63;90.34
50652;BME280;66928;52.086;5.240;2023-02-17T09:21:35;101619.0;;;11.75;90.27
50652;BME280;66928;52.086;5.240;2023-02-17T09:23:12;101626.0;;;11.88;89.61
50652;BME280;66928;52.086;5.240;2023-02-17T09:24:48;101630.0;;;11.81;89.57
50652;BME280;66928;52.086;5.240;2023-02-17T09:28:00;101625.0;;;11.79;89.65
50652;BME280;66928;52.086;5.240;2023-02-17T09:29:37;101625.0;;;11.83;89.26
50652;BME280;66928;52.086;5.240;2023-02-17T09:31:16;101603.0;;;11.86;89.15
50652;BME280;66928;52.086;5.240;2023-02-17T09:32:54;101620.0;;;11.91;88.76
50652;BME280;66928;52.086;5.240;2023-02-17T09:36:12;101614.0;;;11.83;88.91
50652;BME280;66928;52.086;5.240;2023-02-17T09:37:50;101613.0;;;11.9;88.82
50652;BME280;66928;52.086;5.240;2023-02-17T09:39:27;101614.0;;;11.78;89.16
50652;BME280;66928;52.086;5.240;2023-02-17T09:42:50;101610.0;;;12.02;88.28
50652;BME280;66928;52.086;5.240;2023-02-17T09:44:35;101613.0;;;11.89;88.64
50652;BME280;66928;52.086;5.240;2023-02-17T09:46:20;101610.0;;;12.04;88.52
50652;BME280;66928;52.086;5.240;2023-02-17T09:48:04;101616.0;;;11.99;88.15
50652;BME280;66928;52.086;5.240;2023-02-17T09:49:44;101623.0;;;12.02;88.08
50652;BME280;66928;52.086;5.240;2023-02-17T09:53:08;101623.0;;;11.97;87.83
50652;BME280;66928;52.086;5.240;2023-02-17T09:54:58;101618.0;;;12.08;87.71
50652;BME280;66928;52.086;5.240;2023-02-17T09:56:40;101630.0;;;11.95;87.97
50652;BME280;66928;52.086;5.240;2023-02-17T09:58:19;101614.0;;;11.89;88.24
50652;BME280;66928;52.086;5.240;2023-02-17T10:01:43;101595.0;;;12.0;88.17
50652;BME280;66928;52.086;5.240;2023-02-17T10:03:24;101602.0;;;12.03;87.83
50652;BME280;66928;52.086;5.240;2023-02-17T10:05:08;101609.0;;;11.95;88.34
50652;BME280;66928;52.086;5.240;2023-02-17T10:06:50;101617.0;;;11.96;88.39
50652;BME280;66928;52.086;5.240;2023-02-17T10:08:31;101616.0;;;12.04;88.3
50652;BME280;66928;52.086;5.240;2023-02-17T10:11:56;101621.0;;;11.94;88.55
50652;BME280;66928;52.086;5.240;2023-02-17T10:13:36;101614.0;;;11.84;88.56
50652;BME280;66928;52.086;5.240;2023-02-17T10:15:20;101615.0;;;11.96;88.53
50652;BME280;66928;52.086;5.240;2023-02-17T10:17:02;101623.0;;;11.89;88.99
50652;BME280;66928;52.086;5.240;2023-02-17T10:20:27;101617.0;;;11.83;88.77
50652;BME280;66928;52.086;5.240;2023-02-17T10:22:11;101631.0;;;11.95;88.85
50652;BME280;66928;52.086;5.240;2023-02-17T10:23:50;101626.0;;;11.92;88.72
50652;BME280;66928;52.086;5.240;2023-02-17T10:25:42;101635.0;;;11.96;88.97
50652;BME280;66928;52.086;5.240;2023-02-17T10:27:35;101632.0;;;11.79;89.4
50652;BME280;66928;52.086;5.240;2023-02-17T10:31:10;101636.0;;;11.83;89.67
50652;BME280;66928;52.086;5.240;2023-02-17T10:32:57;101636.0;;;11.83;89.35
50652;BME280;66928;52.086;5.240;2023-02-17T10:34:37;101637.0;;;11.78;89.74
50652;BME280;66928;52.086;5.240;2023-02-17T10:36:24;101645.0;;;11.88;89.34
50652;BME280;66928;52.086;5.240;2023-02-17T10:38:13;101640.0;;;11.96;89.06
50652;BME280;66928;52.086;5.240;2023-02-17T10:39:53;101631.0;;;11.94;88.79
50652;BME280;66928;52.086;5.240;2023-02-17T10:43:14;101630.0;;;12.03;88.76
50652;BME280;66928;52.086;5.240;2023-02-17T10:45:04;101628.0;;;12.0;88.57
50652;BME280;66928;52.086;5.240;2023-02-17T10:46:48;101638.0;;;11.9;89.24
50652;BME280;66928;52.086;5.240;2023-02-17T10:48:31;101631.0;;;11.92;89.09
50652;BME280;66928;52.086;5.240;2023-02-17T10:52:00;101635.0;;;11.93;89.3
50652;BME280;66928;52.086;5.240;2023-02-17T10:53:37;101635.0;;;12.01;88.62
50652;BME280;66928;52.086;5.240;2023-02-17T10:55:22;101637.0;;;11.87;89.06
50652;BME280;66928;52.086;5.240;2023-02-17T10:57:09;101626.0;;;11.99;89.0
50652;BME280;66928;52.086;5.240;2023-02-17T10:58:49;101639.0;;;11.96;88.89
50652;BME280;66928;52.086;5.240;2023-02-17T11:02:18;101645.0;;;11.94;89.28
50652;BME280;66928;52.086;5.240;2023-02-17T11:04:01;101653.0;;;12.03;88.79
50652;BME280;66928;52.086;5.240;2023-02-17T11:05:40;101661.0;;;11.99;88.79
50652;BME280;66928;52.086;5.240;2023-02-17T11:07:18;101680.0;;;12.07;88.5
50652;BME280;66928;52.086;5.240;2023-02-17T11:09:17;101661.0;;;11.99;89.03
50652;BME280;66928;52.086;5.240;2023-02-17T11:12:39;101659.0;;;11.98;89.05
50652;BME280;66928;52.086;5.240;2023-02-17T11:14:18;101659.0;;;12.17;88.17
50652;BME280;66928;52.086;5.240;2023-02-17T11:15:59;101655.0;;;12.04;88.57
50652;BME280;66928;52.086;5.240;2023-02-17T11:17:37;101668.0;;;11.98;88.68
50652;BME280;66928;52.086;5.240;2023-02-17T11:21:03;101661.0;;;11.89;89.16
50652;BME280;66928;52.086;5.240;2023-02-17T11:22:42;101659.0;;;11.95;88.76
50652;BME280;66928;52.086;5.240;2023-02-17T11:24:19;101656.0;;;11.81;89.04
50652;BME280;66928;52.086;5.240;2023-02-17T11:26:00;101675.0;;;11.88;88.73
50652;BME280;66928;52.086;5.240;2023-02-17T11:29:15;101665.0;;;11.82;89.0
50652;BME280;66928;52.086;5.240;2023-02-17T11:30:55;101676.0;;;11.77;89.13
50652;BME280;66928;52.086;5.240;2023-02-17T11:32:33;101683.0;;;11.81;88.89
50652;BME280;66928;52.086;5.240;2023-02-17T11:34:11;101686.0;;;11.67;89.82
50652;BME280;66928;52.086;5.240;2023-02-17T11:37:31;101689.0;;;11.68;89.85
50652;BME280;66928;52.086;5.240;2023-02-17T11:39:16;101696.0;;;11.68;89.84
50652;BME280;66928;52.086;5.240;2023-02-17T11:40:57;101705.0;;;11.56;90.25
50652;BME280;66928;52.086;5.240;2023-02-17T11:42:34;101710.0;;;11.61;90.33
50652;BME280;66928;52.086;5.240;2023-02-17T11:46:06;101696.0;;;11.86;89.41
50652;BME280;66928;52.086;5.240;2023-02-17T11:47:54;101705.0;;;11.89;89.05
50652;BME280;66928;52.086;5.240;2023-02-17T11:49:44;101715.0;;;11.81;89.36
50652;BME280;66928;52.086;5.240;2023-02-17T11:51:42;101724.0;;;11.7;89.39
50652;BME280;66928;52.086;5.240;2023-02-17T11:53:32;101723.0;;;11.57;89.91
50652;BME280;66928;52.086;5.240;2023-02-17T11:55:25;101712.0;;;11.67;89.81
50652;BME280;66928;52.086;5.240;2023-02-17T11:57:20;101731.0;;;11.74;89.14
50652;BME280;66928;52.086;5.240;2023-02-17T12:01:19;101726.0;;;11.7;89.33
50652;BME280;66928;52.086;5.240;2023-02-17T12:03:56;101724.0;;;11.62;89.7
50652;BME280;66928;52.086;5.240;2023-02-17T12:06:47;101717.0;;;11.46;90.13
50652;BME280;66928;52.086;5.240;2023-02-17T12:08:37;101716.0;;;11.62;89.85
50652;BME280;66928;52.086;5.240;2023-02-17T12:10:22;101715.0;;;11.63;89.45
50652;BME280;66928;52.086;5.240;2023-02-17T12:12:13;101719.0;;;11.46;89.95
50652;BME280;66928;52.086;5.240;2023-02-17T12:14:04;101728.0;;;11.53;90.16
50652;BME280;66928;52.086;5.240;2023-02-17T12:17:44;101718.0;;;11.7;89.27
50652;BME280;66928;52.086;5.240;2023-02-17T12:19:37;101736.0;;;11.65;89.27
50652;BME280;66928;52.086;5.240;2023-02-17T12:21:27;101750.0;;;11.39;89.92
50652;BME280;66928;52.086;5.240;2023-02-17T12:23:21;101737.0;;;11.28;90.7
50652;BME280;66928;52.086;5.240;2023-02-17T12:25:16;101737.0;;;11.28;90.71
50652;BME280;66928;52.086;5.240;2023-02-17T12:27:03;101741.0;;;11.3;90.76
50652;BME280;66928;52.086;5.240;2023-02-17T12:28:54;101748.0;;;11.36;90.55
50652;BME280;66928;52.086;5.240;2023-02-17T12:30:53;101742.0;;;11.41;90.28
50652;BME280;66928;52.086;5.240;2023-02-17T12:34:30;101752.0;;;11.42;90.19
50652;BME280;66928;52.086;5.240;2023-02-17T12:36:12;101764.0;;;11.34;90.3
50652;BME280;66928;52.086;5.240;2023-02-17T12:37:53;101764.0;;;11.34;90.93
50652;BME280;66928;52.086;5.240;2023-02-17T12:39:35;101774.0;;;11.39;90.8
50652;BME280;66928;52.086;5.240;2023-02-17T12:41:21;101755.0;;;11.43;90.72
50652;BME280;66928;52.086;5.240;2023-02-17T12:44:46;101758.0;;;11.53;90.0
50652;BME280;66928;52.086;5.240;2023-02-17T12:46:31;101751.0;;;11.59;89.85
50652;BME280;66928;52.086;5.240;2023-02-17T12:48:14;101765.0;;;11.55;89.27
50652;BME280;66928;52.086;5.240;2023-02-17T12:50:00;101767.0;;;11.6;89.79
50652;BME280;66928;52.086;5.240;2023-02-17T12:51:41;101770.0;;;11.55;89.41
50652;BME280;66928;52.086;5.240;2023-02-17T12:55:12;101771.0;;;11.39;90.12
50652;BME280;66928;52.086;5.240;2023-02-17T12:57:00;101765.0;;;11.53;89.88
50652;BME280;66928;52.086;5.240;2023-02-17T12:58:40;101782.0;;;11.6;89.57
50652;BME280;66928;52.086;5.240;2023-02-17T13:00:22;101778.0;;;11.54;89.77
50652;BME280;66928;52.086;5.240;2023-02-17T13:02:02;101772.0;;;11.58;89.73
50652;BME280;66928;52.086;5.240;2023-02-17T13:05:20;101770.0;;;11.76;89.47
50652;BME280;66928;52.086;5.240;2023-02-17T13:07:10;101778.0;;;11.8;88.69
50652;BME280;66928;52.086;5.240;2023-02-17T13:08:56;101752.0;;;11.88;88.43
50652;BME280;66928;52.086;5.240;2023-02-17T13:10:36;101743.0;;;11.81;88.2
50652;BME280;66928;52.086;5.240;2023-02-17T13:14:11;101750.0;;;12.02;87.66
50652;BME280;66928;52.086;5.240;2023-02-17T13:15:47;101750.0;;;11.92;87.12
50652;BME280;66928;52.086;5.240;2023-02-17T13:17:25;101746.0;;;11.86;87.63
50652;BME280;66928;52.086;5.240;2023-02-17T13:19:06;101756.0;;;11.88;87.75
50652;BME280;66928;52.086;5.240;2023-02-17T13:23:03;101770.0;;;12.04;87.1
50652;BME280;66928;52.086;5.240;2023-02-17T13:24:50;101773.0;;;12.17;86.5
50652;BME280;66928;52.086;5.240;2023-02-17T13:26:29;101777.0;;;12.26;85.88
50652;BME280;66928;52.086;5.240;2023-02-17T13:28:16;101773.0;;;12.22;85.61
50652;BME280;66928;52.086;5.240;2023-02-17T13:29:58;101774.0;;;12.19;86.0
50652;BME280;66928;52.086;5.240;2023-02-17T13:31:45;101772.0;;;12.24;85.61
50652;BME280;66928;52.086;5.240;2023-02-17T13:33:28;101767.0;;;12.31;85.45
50652;BME280;66928;52.086;5.240;2023-02-17T13:37:18;101765.0;;;12.39;84.88
50652;BME280;66928;52.086;5.240;2023-02-17T13:39:02;101771.0;;;12.42;84.86
50652;BME280;66928;52.086;5.240;2023-02-17T13:40:42;101769.0;;;12.39;84.75
50652;BME280;66928;52.086;5.240;2023-02-17T13:42:37;101764.0;;;12.5;84.38
50652;BME280;66928;52.086;5.240;2023-02-17T13:44:23;101761.0;;;12.37;84.85
50652;BME280;66928;52.086;5.240;2023-02-17T13:46:03;101757.0;;;12.39;84.81
50652;BME280;66928;52.086;5.240;2023-02-17T13:49:24;101763.0;;;12.4;84.32
50652;BME280;66928;52.086;5.240;2023-02-17T13:51:02;101776.0;;;12.46;84.21
50652;BME280;66928;52.086;5.240;2023-02-17T13:52:42;101769.0;;;12.48;83.66
50652;BME280;66928;52.086;5.240;2023-02-17T13:54:20;101774.0;;;12.46;83.74
50652;BME280;66928;52.086;5.240;2023-02-17T13:57:37;101771.0;;;12.51;84.07
50652;BME280;66928;52.086;5.240;2023-02-17T13:59:23;101760.0;;;12.35;84.2
50652;BME280;66928;52.086;5.240;2023-02-17T14:01:02;101760.0;;;12.43;84.45
50652;BME280;66928;52.086;5.240;2023-02-17T14:02:46;101749.0;;;12.45;84.18
50652;BME280;66928;52.086;5.240;2023-02-17T14:06:03;101764.0;;;12.44;83.92
50652;BME280;66928;52.086;5.240;2023-02-17T14:07:40;101761.0;;;12.58;83.88
50652;BME280;66928;52.086;5.240;2023-02-17T14:09:22;101749.0;;;12.46;83.94
50652;BME280;66928;52.086;5.240;2023-02-17T14:12:42;101755.0;;;12.36;84.27
50652;BME280;66928;52.086;5.240;2023-02-17T14:14:22;101743.0;;;12.28;84.56
50652;BME280;66928;52.086;5.240;2023-02-17T14:16:06;101733.0;;;12.38;84.28
50652;BME280;66928;52.086;5.240;2023-02-17T14:18:11;101755.0;;;12.31;84.41
50652;BME280;66928;52.086;5.240;2023-02-17T14:19:48;101757.0;;;12.42;84.62
50652;BME280;66928;52.086;5.240;2023-02-17T14:23:04;101759.0;;;12.37;84.29
50652;BME280;66928;52.086;5.240;2023-02-17T14:24:41;101758.0;;;12.35;84.47
50652;BME280;66928;52.086;5.240;2023-02-17T14:26:26;101769.0;;;12.36;84.65
50652;BME280;66928;52.086;5.240;2023-02-17T14:28:16;101759.0;;;12.55;83.99
50652;BME280;66928;52.086;5.240;2023-02-17T14:29:54;101768.0;;;12.47;84.24
50652;BME280;66928;52.086;5.240;2023-02-17T14:33:20;101764.0;;;12.68;83.37
50652;BME280;66928;52.086;5.240;2023-02-17T14:35:14;101770.0;;;12.38;83.93
50652;BME280;66928;52.086;5.240;2023-02-17T14:36:54;101760.0;;;12.48;83.9
50652;BME280;66928;52.086;5.240;2023-02-17T14:38:41;101770.0;;;12.42;84.18
50652;BME280;66928;52.086;5.240;2023-02-17T14:40:20;101759.0;;;12.51;84.12
50652;BME280;66928;52.086;5.240;2023-02-17T14:43:34;101766.0;;;12.42;84.37
50652;BME280;66928;52.086;5.240;2023-02-17T14:45:11;101771.0;;;12.45;84.26
50652;BME280;66928;52.086;5.240;2023-02-17T14:46:48;101781.0;;;12.53;83.7
50652;BME280;66928;52.086;5.240;2023-02-17T14:50:00;101781.0;;;12.43;84.45
50652;BME280;66928;52.086;5.240;2023-02-17T14:51:38;101771.0;;;12.65;83.5
50652;BME280;66928;52.086;5.240;2023-02-17T14:53:22;101784.0;;;12.77;83.13
50652;BME280;66928;52.086;5.240;2023-02-17T14:55:02;101780.0;;;12.73;83.28
50652;BME280;66928;52.086;5.240;2023-02-17T14:58:35;101785.0;;;12.7;83.24
50652;BME280;66928;52.086;5.240;2023-02-17T15:00:13;101791.0;;;12.64;83.71
50652;BME280;66928;52.086;5.240;2023-02-17T15:01:50;101798.0;;;12.75;83.48
50652;BME280;66928;52.086;5.240;2023-02-17T15:03:26;101803.0;;;12.61;83.61
50652;BME280;66928;52.086;5.240;2023-02-17T15:06:42;101798.0;;;12.59;84.06
50652;BME280;66928;52.086;5.240;2023-02-17T15:08:29;101801.0;;;12.68;83.7
50652;BME280;66928;52.086;5.240;2023-02-17T15:10:15;101792.0;;;12.52;84.22
50652;BME280;66928;52.086;5.240;2023-02-17T15:11:59;101802.0;;;12.84;83.2
50652;BME280;66928;52.086;5.240;2023-02-17T15:15:16;101792.0;;;12.87;82.96
50652;BME280;66928;52.086;5.240;2023-02-17T15:16:52;101799.0;;;12.6;83.77
50652;BME280;66928;52.086;5.240;2023-02-17T15:18:28;101778.0;;;12.74;83.28
50652;BME280;66928;52.086;5.240;2023-02-17T15:20:06;101796.0;;;12.57;83.76
50652;BME280;66928;52.086;5.240;2023-02-17T15:23:23;101800.0;;;12.58;84.29
50652;BME280;66928;52.086;5.240;2023-02-17T15:24:59;101813.0;;;12.78;83.41
50652;BME280;66928;52.086;5.240;2023-02-17T15:26:35;101825.0;;;12.82;83.21
50652;BME280;66928;52.086;5.240;2023-02-17T15:29:49;101821.0;;;12.75;83.56
50652;BME280;66928;52.086;5.240;2023-02-17T15:31:28;101813.0;;;12.52;84.34
50652;BME280;66928;52.086;5.240;2023-02-17T15:33:10;101819.0;;;12.37;84.83
50652;BME280;66928;52.086;5.240;2023-02-17T15:34:47;101820.0;;;12.33;84.98
50652;BME280;66928;52.086;5.240;2023-02-17T15:38:00;101824.0;;;12.43;85.12
50652;BME280;66928;52.086;5.240;2023-02-17T15:39:36;101827.0;;;12.23;85.69
50652;BME280;66928;52.086;5.240;2023-02-17T15:41:15;101836.0;;;12.47;85.23
50652;BME280;66928;52.086;5.240;2023-02-17T15:44:36;101828.0;;;12.59;84.15
50652;BME280;66928;52.086;5.240;2023-02-17T15:46:19;101834.0;;;12.54;84.28
50652;BME280;66928;52.086;5.240;2023-02-17T15:48:02;101832.0;;;12.54;84.3
50652;BME280;66928;52.086;5.240;2023-02-17T15:49:42;101843.0;;;12.39;84.78
50652;BME280;66928;52.086;5.240;2023-02-17T15:52:55;101835.0;;;12.47;84.85
50652;BME280;66928;52.086;5.240;2023-02-17T15:54:32;101840.0;;;12.4;85.05
50652;BME280;66928;52.086;5.240;2023-02-17T15:56:11;101849.0;;;12.35;85.25
50652;BME280;66928;52.086;5.240;2023-02-17T15:57:50;101861.0;;;12.49;84.51
50652;BME280;66928;52.086;5.240;2023-02-17T16:01:05;101869.0;;;12.53;84.4
50652;BME280;66928;52.086;5.240;2023-02-17T16:02:42;101862.0;;;12.39;84.63
50652;BME280;66928;52.086;5.240;2023-02-17T16:04:18;101855.0;;;12.41;85.12
50652;BME280;66928;52.086;5.240;2023-02-17T16:07:31;101858.0;;;12.42;85.26
50652;BME280;66928;52.086;5.240;2023-02-17T16:09:08;101856.0;;;12.39;84.84
50652;BME280;66928;52.086;5.240;2023-02-17T16:17:11;101880.0;;;12.48;84.55
50652;BME280;66928;52.086;5.240;2023-02-17T16:18:50;101871.0;;;12.68;83.98
50652;BME280;66928;52.086;5.240;2023-02-17T16:22:06;101873.0;;;12.46;85.09
50652;BME280;66928;52.086;5.240;2023-02-17T16:23:43;101863.0;;;12.63;84.36
50652;BME280;66928;52.086;5.240;2023-02-17T16:25:21;101872.0;;;12.68;83.89
50652;BME280;66928;52.086;5.240;2023-02-17T16:28:34;101880.0;;;12.7;83.74
50652;BME280;66928;52.086;5.240;2023-02-17T16:30:17;101893.0;;;12.82;83.14
50652;BME280;66928;52.086;5.240;2023-02-17T16:31:54;101898.0;;;12.57;83.88
50652;BME280;66928;52.086;5.240;2023-02-17T16:33:30;101903.0;;;12.64;83.73
50652;BME280;66928;52.086;5.240;2023-02-17T16:36:50;101909.0;;;12.57;83.95
50652;BME280;66928;52.086;5.240;2023-02-17T16:38:29;101909.0;;;12.74;83.35
50652;BME280;66928;52.086;5.240;2023-02-17T16:40:13;101905.0;;;12.54;83.52
50652;BME280;66928;52.086;5.240;2023-02-17T16:41:51;101909.0;;;12.62;83.55
50652;BME280;66928;52.086;5.240;2023-02-17T16:45:12;101898.0;;;12.5;83.94
50652;BME280;66928;52.086;5.240;2023-02-17T16:46:51;101898.0;;;12.23;85.09
50652;BME280;66928;52.086;5.240;2023-02-17T16:48:32;101899.0;;;12.46;84.66
50652;BME280;66928;52.086;5.240;2023-02-17T16:50:16;101906.0;;;12.6;84.01
50652;BME280;66928;52.086;5.240;2023-02-17T16:53:29;101909.0;;;12.34;85.0
50652;BME280;66928;52.086;5.240;2023-02-17T16:55:06;101918.0;;;12.59;83.91
50652;BME280;66928;52.086;5.240;2023-02-17T16:56:44;101926.0;;;12.33;84.61
50652;BME280;66928;52.086;5.240;2023-02-17T17:00:01;101927.0;;;12.46;84.59
50652;BME280;66928;52.086;5.240;2023-02-17T17:01:37;101927.0;;;12.56;84.14
50652;BME280;66928;52.086;5.240;2023-02-17T17:03:13;101917.0;;;12.46;84.11
50652;BME280;66928;52.086;5.240;2023-02-17T17:04:49;101918.0;;;12.56;83.77
50652;BME280;66928;52.086;5.240;2023-02-17T17:08:04;101926.0;;;12.2;85.27
50652;BME280;66928;52.086;5.240;2023-02-17T17:09:41;101931.0;;;12.34;84.95
50652;BME280;66928;52.086;5.240;2023-02-17T17:11:21;101933.0;;;12.39;84.6
50652;BME280;66928;52.086;5.240;2023-02-17T17:14:34;101935.0;;;12.37;84.92
50652;BME280;66928;52.086;5.240;2023-02-17T17:16:12;101937.0;;;12.33;85.12
50652;BME280;66928;52.086;5.240;2023-02-17T17:17:53;101939.0;;;12.33;85.2
50652;BME280;66928;52.086;5.240;2023-02-17T17:19:34;101942.0;;;12.38;84.64
50652;BME280;66928;52.086;5.240;2023-02-17T17:22:49;101940.0;;;12.52;84.19
50652;BME280;66928;52.086;5.240;2023-02-17T17:24:25;101943.0;;;12.41;84.39
50652;BME280;66928;52.086;5.240;2023-02-17T17:26:13;101949.0;;;12.42;84.4
50652;BME280;66928;52.086;5.240;2023-02-17T17:27:59;101955.0;;;12.29;84.87
50652;BME280;66928;52.086;5.240;2023-02-17T17:31:13;101953.0;;;12.27;84.58
50652;BME280;66928;52.086;5.240;2023-02-17T17:32:50;101960.0;;;12.04;85.83
50652;BME280;66928;52.086;5.240;2023-02-17T17:34:28;101963.0;;;12.19;85.53
50652;BME280;66928;52.086;5.240;2023-02-17T17:36:11;101965.0;;;12.13;85.6
50652;BME280;66928;52.086;5.240;2023-02-17T17:39:25;101973.0;;;12.12;85.3
50652;BME280;66928;52.086;5.240;2023-02-17T17:41:03;101977.0;;;12.22;85.59
50652;BME280;66928;52.086;5.240;2023-02-17T17:42:39;101976.0;;;12.1;86.1
50652;BME280;66928;52.086;5.240;2023-02-17T17:45:53;101980.0;;;12.14;85.79
50652;BME280;66928;52.086;5.240;2023-02-17T17:47:30;101985.0;;;12.1;85.88
50652;BME280;66928;52.086;5.240;2023-02-17T17:49:11;101991.0;;;12.21;85.37
50652;BME280;66928;52.086;5.240;2023-02-17T17:50:49;102000.0;;;12.15;85.36
50652;BME280;66928;52.086;5.240;2023-02-17T17:54:02;102005.0;;;12.42;84.48
50652;BME280;66928;52.086;5.240;2023-02-17T17:55:39;102007.0;;;12.32;84.86
50652;BME280;66928;52.086;5.240;2023-02-17T17:57:15;102020.0;;;12.1;86.12